Cathay, North Dakota
Current Conditions -  °F | °C
As of 1:35 PM on Thursday 30 Oct 2014 (Local Time) from K46D Reporting Station
Overcast Overcast  
Wind Chill: -7°   Ceiling: 1700
Heat Index:   Visibility: 10mi
Dew Point: -2°   Wind: 21mph
Humidity: 87%   Direction: 10°N
Pressure: 30.38"   Gusts: 30mph
Location:  47.55°N, 99.41°W
Report Text: K46D 301835Z AUTO 01018G26KT 10SM OVC017 00/M02 A3038 RMK AO2
Loading
Personal Weather Stations






























Interactive Weather Map
Tropical Storm Tracking
New forecast layout! Learn more

10-Day Weather Forecast

Advertisements
Track Severe Weather on mobile